createdAt,value
2022-08-26T00:01:54.562Z,17.85
2022-08-26T00:04:23.727Z,15.90
2022-08-26T00:06:51.626Z,15.95
2022-08-26T00:09:19.166Z,19.85
2022-08-26T00:11:46.675Z,20.20
2022-08-26T00:14:16.226Z,19.08
2022-08-26T00:16:48.005Z,17.27
2022-08-26T00:19:19.329Z,15.75
2022-08-26T00:21:48.538Z,14.88
2022-08-26T00:24:16.852Z,14.35
2022-08-26T00:26:44.600Z,19.10
2022-08-26T00:29:12.555Z,9.60
2022-08-26T00:31:40.979Z,14.02
2022-08-26T00:34:09.393Z,13.57
2022-08-26T00:36:37.580Z,13.18
2022-08-26T00:39:09.736Z,14.98
2022-08-26T00:41:40.023Z,13.00
2022-08-26T00:44:08.537Z,15.57
2022-08-26T00:46:46.391Z,20.40
2022-08-26T00:49:23.228Z,21.65
2022-08-26T00:51:53.995Z,19.55
2022-08-26T00:54:27.236Z,13.43
2022-08-26T00:57:02.067Z,18.52
2022-08-26T00:59:32.744Z,20.10
2022-08-26T01:02:02.588Z,14.48
2022-08-26T01:04:34.071Z,17.65
2022-08-26T01:07:02.050Z,15.35
2022-08-26T01:09:30.439Z,12.82
2022-08-26T01:12:00.683Z,17.58
2022-08-26T01:14:33.951Z,15.75
2022-08-26T01:17:03.395Z,16.95
2022-08-26T01:19:41.008Z,18.65
2022-08-26T01:22:11.302Z,17.17
2022-08-26T01:24:41.330Z,16.70
2022-08-26T01:27:11.549Z,17.42
2022-08-26T01:29:42.640Z,19.95
2022-08-26T01:32:14.739Z,16.48
2022-08-26T01:34:42.313Z,14.50
2022-08-26T01:37:18.266Z,18.35
2022-08-26T01:39:49.895Z,18.10
2022-08-26T01:42:19.622Z,16.15
2022-08-26T01:44:52.414Z,13.98
2022-08-26T01:47:21.604Z,16.23
2022-08-26T01:49:51.591Z,17.50
2022-08-26T01:52:27.472Z,13.60
2022-08-26T01:54:57.370Z,15.85
2022-08-26T01:57:25.904Z,19.77
2022-08-26T01:59:57.587Z,20.73
2022-08-26T02:02:25.849Z,18.63
2022-08-26T02:05:00.051Z,15.95
2022-08-26T02:07:28.952Z,15.38
2022-08-26T02:09:56.881Z,18.05
2022-08-26T02:12:25.903Z,18.83
2022-08-26T02:14:56.754Z,12.20
2022-08-26T02:17:29.544Z,15.63
2022-08-26T02:19:58.335Z,16.27
2022-08-26T02:22:25.554Z,14.10
2022-08-26T02:25:06.885Z,12.35
2022-08-26T02:27:36.138Z,15.52
2022-08-26T02:30:18.775Z,15.63
2022-08-26T02:32:47.012Z,16.70
2022-08-26T02:35:20.163Z,15.23
2022-08-26T02:37:49.382Z,16.17
2022-08-26T02:40:21.541Z,15.25
2022-08-26T02:42:49.863Z,17.65
2022-08-26T02:45:23.386Z,15.43
2022-08-26T02:47:52.492Z,13.88
2022-08-26T02:50:20.134Z,14.00
2022-08-26T02:52:48.469Z,14.05
2022-08-26T02:55:16.567Z,12.85
2022-08-26T02:57:44.073Z,14.80
2022-08-26T03:00:14.554Z,18.50
2022-08-26T03:02:42.075Z,13.25
2022-08-26T03:05:11.320Z,13.15
2022-08-26T03:07:38.844Z,13.75
2022-08-26T03:10:08.840Z,12.82
2022-08-26T03:12:36.642Z,14.55
2022-08-26T03:15:15.876Z,16.23
2022-08-26T03:17:49.175Z,17.30
2022-08-26T03:20:18.360Z,22.85
2022-08-26T03:22:46.053Z,24.83
2022-08-26T03:25:15.779Z,17.25
2022-08-26T03:27:43.309Z,17.42
2022-08-26T03:30:31.501Z,14.18
2022-08-26T03:32:59.098Z,12.15
2022-08-26T03:35:26.620Z,17.58
2022-08-26T03:37:54.204Z,15.45
2022-08-26T03:40:22.379Z,18.50
2022-08-26T03:42:50.407Z,15.98
2022-08-26T03:45:19.150Z,12.48
2022-08-26T03:47:48.044Z,19.27
2022-08-26T03:50:22.833Z,16.20
2022-08-26T03:52:53.847Z,20.23
2022-08-26T03:55:24.907Z,15.50
2022-08-26T03:57:52.742Z,15.88
2022-08-26T04:00:20.644Z,18.25
2022-08-26T04:02:51.220Z,18.33
2022-08-26T04:05:22.736Z,17.30
2022-08-26T04:07:50.852Z,17.88
2022-08-26T04:10:22.180Z,14.82
2022-08-26T04:12:58.840Z,21.60
2022-08-26T04:15:27.178Z,20.95
2022-08-26T04:17:55.839Z,20.65
2022-08-26T04:20:24.992Z,14.98
2022-08-26T04:22:52.619Z,16.20
2022-08-26T04:25:20.543Z,18.95
2022-08-26T04:27:48.512Z,19.77
2022-08-26T04:30:16.658Z,17.58
2022-08-26T04:32:44.953Z,17.00
2022-08-26T04:35:12.390Z,15.38
2022-08-26T04:37:43.105Z,15.43
2022-08-26T04:40:11.334Z,16.50
2022-08-26T04:42:38.702Z,15.23
2022-08-26T04:45:10.407Z,20.40
2022-08-26T04:47:38.783Z,16.92
2022-08-26T04:50:07.707Z,20.15
2022-08-26T04:52:36.261Z,19.25
2022-08-26T04:55:06.665Z,13.70
2022-08-26T04:57:36.403Z,20.08
2022-08-26T05:00:10.304Z,19.70
2022-08-26T05:02:38.875Z,14.43
2022-08-26T05:05:07.227Z,17.08
2022-08-26T05:07:35.359Z,18.33
2022-08-26T05:10:04.264Z,21.63
2022-08-26T05:12:36.022Z,16.80
2022-08-26T05:15:06.182Z,20.80
2022-08-26T05:17:33.445Z,13.85
2022-08-26T05:20:00.705Z,17.95
2022-08-26T05:22:28.177Z,13.85
2022-08-26T05:24:55.458Z,12.13
2022-08-26T05:27:22.548Z,10.65
2022-08-26T05:29:54.454Z,15.98
2022-08-26T05:32:21.856Z,12.40
2022-08-26T05:34:52.708Z,13.00
2022-08-26T05:37:22.029Z,13.00
2022-08-26T05:39:51.415Z,15.77
2022-08-26T05:42:19.925Z,13.60
2022-08-26T05:44:54.028Z,16.27
2022-08-26T05:47:24.320Z,13.60
2022-08-26T05:49:51.899Z,12.45
2022-08-26T05:52:19.794Z,13.15
2022-08-26T05:54:47.692Z,10.77
2022-08-26T05:57:15.756Z,10.05
2022-08-26T05:59:42.872Z,11.43
2022-08-26T06:02:10.116Z,11.45
2022-08-26T06:04:38.450Z,12.32
2022-08-26T06:07:05.713Z,10.73
2022-08-26T06:09:37.283Z,10.57
2022-08-26T06:12:06.744Z,10.25
2022-08-26T06:14:33.915Z,11.98
2022-08-26T06:17:01.113Z,10.27
2022-08-26T06:19:32.893Z,15.18
2022-08-26T06:22:23.272Z,9.30
2022-08-26T06:25:11.921Z,13.50
2022-08-26T06:27:39.086Z,9.05
2022-08-26T06:30:07.085Z,12.15
2022-08-26T06:32:34.212Z,8.80
2022-08-26T06:35:01.536Z,13.18
2022-08-26T06:37:28.963Z,11.35
2022-08-26T06:39:56.438Z,10.00
2022-08-26T06:42:24.885Z,9.93
2022-08-26T06:44:52.223Z,14.02
2022-08-26T06:47:19.346Z,10.90
2022-08-26T06:49:46.496Z,16.75
2022-08-26T06:52:14.199Z,11.02
2022-08-26T06:54:47.244Z,8.52
2022-08-26T06:57:14.589Z,12.57
2022-08-26T06:59:43.983Z,12.48
2022-08-26T07:02:13.600Z,11.32
2022-08-26T07:04:41.405Z,13.02
2022-08-26T07:07:09.646Z,9.80
2022-08-26T07:09:37.453Z,11.15
2022-08-26T07:12:06.861Z,11.02
2022-08-26T07:14:34.997Z,11.32
2022-08-26T07:17:02.609Z,11.70
2022-08-26T07:19:31.641Z,12.43
2022-08-26T07:22:03.415Z,8.73
2022-08-26T07:24:33.273Z,7.65
2022-08-26T07:27:05.845Z,7.25
2022-08-26T07:29:35.085Z,7.70
2022-08-26T07:32:03.503Z,10.02
2022-08-26T07:34:33.310Z,11.35
2022-08-26T07:37:01.393Z,10.13
2022-08-26T07:39:31.447Z,11.23
2022-08-26T07:42:07.409Z,7.63
2022-08-26T07:44:39.729Z,8.68
2022-08-26T07:47:24.103Z,10.20
2022-08-26T07:49:57.871Z,9.18
2022-08-26T07:52:30.040Z,7.70
2022-08-26T07:54:59.252Z,10.23
2022-08-26T07:57:27.788Z,7.63
2022-08-26T07:59:55.452Z,8.55
2022-08-26T08:02:23.727Z,7.45
2022-08-26T08:04:51.841Z,8.23
2022-08-26T08:07:19.106Z,6.45
2022-08-26T08:09:49.493Z,7.25
2022-08-26T08:12:17.683Z,11.80
2022-08-26T08:14:46.849Z,6.40
2022-08-26T08:17:16.661Z,8.43
2022-08-26T08:19:43.831Z,8.13
2022-08-26T08:22:17.302Z,9.60
2022-08-26T08:24:49.691Z,6.53
2022-08-26T08:27:22.819Z,6.82
2022-08-26T08:29:54.330Z,5.85
2022-08-26T08:32:23.649Z,8.30
2022-08-26T08:34:51.014Z,7.68
2022-08-26T08:37:18.372Z,10.35
2022-08-26T08:39:45.491Z,5.00
2022-08-26T08:42:46.139Z,5.53
2022-08-26T08:45:27.356Z,9.13
2022-08-26T08:47:58.565Z,7.25
2022-08-26T08:50:35.676Z,7.32
2022-08-26T08:53:31.840Z,6.93
2022-08-26T08:56:29.278Z,7.65
2022-08-26T08:59:16.860Z,11.15
2022-08-26T09:02:12.848Z,7.47
2022-08-26T09:05:08.113Z,8.07
2022-08-26T09:07:43.326Z,7.90
2022-08-26T09:10:32.565Z,6.13
2022-08-26T09:13:02.674Z,7.63
2022-08-26T09:15:50.631Z,8.30
2022-08-26T09:20:53.102Z,10.02
2022-08-26T09:23:20.679Z,6.40
2022-08-26T09:25:51.054Z,9.88
2022-08-26T09:28:21.614Z,7.57
2022-08-26T09:31:13.360Z,9.88
2022-08-26T09:33:41.753Z,7.43
2022-08-26T09:36:24.841Z,8.35
2022-08-26T09:38:53.916Z,7.28
2022-08-26T09:41:28.206Z,6.97
2022-08-26T09:44:19.132Z,11.57
2022-08-26T09:46:59.361Z,8.40
2022-08-26T09:49:37.617Z,10.88
2022-08-26T09:52:10.912Z,9.23
2022-08-26T09:54:38.980Z,7.35
2022-08-26T09:57:20.077Z,9.75
2022-08-26T09:59:51.464Z,11.35
2022-08-26T10:02:33.851Z,7.15
2022-08-26T10:05:09.578Z,8.18
2022-08-26T10:08:26.037Z,10.18
2022-08-26T10:10:55.346Z,9.27
2022-08-26T10:13:33.844Z,5.95
2022-08-26T10:16:20.856Z,8.63
2022-08-26T10:19:06.421Z,5.47
2022-08-26T10:21:49.599Z,7.63
2022-08-26T10:24:47.723Z,7.57
2022-08-26T10:27:23.268Z,10.32
2022-08-26T10:29:54.815Z,7.38
2022-08-26T10:32:28.529Z,8.10
2022-08-26T10:34:55.936Z,7.53
2022-08-26T10:37:31.225Z,9.35
2022-08-26T10:40:29.395Z,5.40
2022-08-26T10:43:12.563Z,7.80
2022-08-26T10:45:48.949Z,8.63
2022-08-26T10:48:48.446Z,6.80
2022-08-26T10:51:21.756Z,6.53
2022-08-26T10:54:04.869Z,6.78
2022-08-26T10:57:07.029Z,7.90
2022-08-26T10:59:51.693Z,8.95
2022-08-26T11:02:25.228Z,7.63
2022-08-26T11:05:05.523Z,6.20
2022-08-26T11:07:32.788Z,6.45
2022-08-26T11:10:09.955Z,9.00
2022-08-26T11:12:37.519Z,5.70
2022-08-26T11:15:08.883Z,8.68
2022-08-26T11:17:45.012Z,8.93
2022-08-26T11:20:33.756Z,7.13
2022-08-26T11:23:23.858Z,8.52
2022-08-26T11:26:06.386Z,7.85
2022-08-26T11:28:50.310Z,8.57
2022-08-26T11:31:26.919Z,11.25
2022-08-26T11:33:57.089Z,12.52
2022-08-26T11:36:45.466Z,6.25
2022-08-26T11:39:36.637Z,8.40
2022-08-26T11:42:34.410Z,10.45
2022-08-26T11:45:22.455Z,7.30
2022-08-26T11:47:51.381Z,7.03
2022-08-26T11:50:20.583Z,7.07
2022-08-26T11:52:56.081Z,10.45
2022-08-26T11:55:24.155Z,10.43
2022-08-26T11:57:54.937Z,8.02
2022-08-26T12:00:33.281Z,8.27
2022-08-26T12:03:06.577Z,7.68
2022-08-26T12:05:43.582Z,8.13
2022-08-26T12:08:21.702Z,6.53
2022-08-26T12:10:49.420Z,7.93
2022-08-26T12:13:26.256Z,7.22
2022-08-26T12:15:59.894Z,6.80
2022-08-26T12:18:38.738Z,8.27
2022-08-26T12:21:22.736Z,8.90
2022-08-26T12:23:57.435Z,8.47
2022-08-26T12:26:28.172Z,9.25
2022-08-26T12:29:18.086Z,6.63
2022-08-26T12:31:48.477Z,13.07
2022-08-26T12:34:18.544Z,8.15
2022-08-26T12:42:02.602Z,6.57
2022-08-26T12:44:38.246Z,8.93
2022-08-26T12:47:30.957Z,6.55
2022-08-26T12:50:18.836Z,11.48
2022-08-26T12:52:52.152Z,6.05
2022-08-26T12:55:25.785Z,8.60
2022-08-26T12:58:11.574Z,6.28
2022-08-26T13:00:40.983Z,8.07
2022-08-26T13:03:45.493Z,7.80
2022-08-26T13:06:22.525Z,6.55
2022-08-26T13:08:53.193Z,7.50
2022-08-26T13:11:30.170Z,8.13
2022-08-26T13:14:12.276Z,6.13
2022-08-26T13:16:49.417Z,7.15
2022-08-26T13:19:19.961Z,10.73
2022-08-26T13:21:54.575Z,11.82
2022-08-26T13:24:34.159Z,7.35
2022-08-26T13:27:02.653Z,7.10
2022-08-26T13:29:30.808Z,6.57
2022-08-26T13:31:59.094Z,6.63
2022-08-26T13:34:27.163Z,8.20
2022-08-26T13:36:56.469Z,8.35
2022-08-26T13:39:24.641Z,6.93
2022-08-26T13:41:52.455Z,7.55
2022-08-26T13:44:19.985Z,8.88
2022-08-26T13:46:47.589Z,9.20
2022-08-26T13:49:14.843Z,7.10
2022-08-26T13:51:42.871Z,13.48
2022-08-26T13:54:10.069Z,9.77
2022-08-26T13:56:37.628Z,8.77
2022-08-26T13:59:06.404Z,9.68
2022-08-26T14:01:35.173Z,5.57
2022-08-26T14:04:03.321Z,7.30
2022-08-26T14:06:30.839Z,9.35
2022-08-26T14:08:58.238Z,8.25
2022-08-26T14:11:25.494Z,6.55
2022-08-26T14:13:53.099Z,13.38
2022-08-26T14:16:27.681Z,10.48
2022-08-26T14:18:55.402Z,5.55
2022-08-26T14:21:23.802Z,9.90
2022-08-26T14:23:51.054Z,8.25
2022-08-26T14:26:28.273Z,6.03
2022-08-26T14:28:57.762Z,6.32
2022-08-26T14:31:27.221Z,7.63
2022-08-26T14:33:57.477Z,9.38
2022-08-26T14:36:33.667Z,9.07
2022-08-26T14:39:10.639Z,8.68
2022-08-26T14:41:54.077Z,7.50
2022-08-26T14:44:27.154Z,9.48
2022-08-26T14:46:54.992Z,8.75
2022-08-26T14:49:24.478Z,6.07
2022-08-26T14:51:51.874Z,9.82
2022-08-26T14:54:20.477Z,12.77
2022-08-26T14:57:01.348Z,9.35
2022-08-26T14:59:35.566Z,7.57
2022-08-26T15:02:04.453Z,6.20
2022-08-26T15:04:32.323Z,9.20
2022-08-26T15:07:00.688Z,10.25
2022-08-26T15:09:30.363Z,12.63
2022-08-26T15:11:57.885Z,7.22
2022-08-26T15:14:27.581Z,8.50
2022-08-26T15:16:57.111Z,9.38
2022-08-26T15:19:26.770Z,12.43
2022-08-26T15:21:54.198Z,8.10
2022-08-26T15:24:24.840Z,14.57
2022-08-26T15:26:53.323Z,9.07
2022-08-26T15:29:20.823Z,7.65
2022-08-26T15:31:48.798Z,10.60
2022-08-26T15:34:17.167Z,8.05
2022-08-26T15:36:46.573Z,7.38
2022-08-26T15:39:15.537Z,15.65
2022-08-26T15:41:43.497Z,9.38
2022-08-26T15:44:11.585Z,10.32
2022-08-26T15:46:39.328Z,8.43
2022-08-26T15:49:07.133Z,8.90
2022-08-26T15:51:45.859Z,7.25
2022-08-26T15:54:16.755Z,11.57
2022-08-26T15:56:45.514Z,10.10
2022-08-26T15:59:15.481Z,9.13
2022-08-26T16:01:43.511Z,8.98
2022-08-26T16:04:11.542Z,7.90
2022-08-26T16:06:41.537Z,10.75
2022-08-26T16:09:09.805Z,15.02
2022-08-26T16:11:39.863Z,11.85
2022-08-26T16:14:07.847Z,9.48
2022-08-26T16:16:39.443Z,12.75
2022-08-26T16:19:08.226Z,11.38
2022-08-26T16:21:35.721Z,21.05
2022-08-26T16:24:03.618Z,16.48
2022-08-26T16:26:33.197Z,7.18
2022-08-26T16:29:10.590Z,12.30
2022-08-26T16:31:38.407Z,9.95
2022-08-26T16:34:07.831Z,10.50
2022-08-26T16:36:36.946Z,13.07
2022-08-26T16:39:05.802Z,13.63
2022-08-26T16:41:33.438Z,8.60
2022-08-26T16:44:00.858Z,9.45
2022-08-26T16:46:29.013Z,7.20
2022-08-26T16:48:58.523Z,12.32
2022-08-26T16:51:27.582Z,12.70
2022-08-26T16:53:56.488Z,13.13
2022-08-26T16:56:27.677Z,18.75
2022-08-26T16:59:02.864Z,17.38
2022-08-26T17:01:30.359Z,21.27
2022-08-26T17:03:57.579Z,12.85
2022-08-26T17:06:24.770Z,17.33
2022-08-26T17:08:52.566Z,14.25
2022-08-26T17:11:19.855Z,15.75
2022-08-26T17:13:47.268Z,16.67
2022-08-26T17:16:15.005Z,22.08
2022-08-26T17:18:42.453Z,18.77
2022-08-26T17:21:12.478Z,24.27
2022-08-26T17:23:41.228Z,23.65
2022-08-26T17:26:09.621Z,23.52
2022-08-26T17:28:36.729Z,19.60
2022-08-26T17:31:05.129Z,19.20
2022-08-26T17:33:32.907Z,15.63
2022-08-26T17:36:00.702Z,18.92
2022-08-26T17:38:29.234Z,16.70
2022-08-26T17:40:57.515Z,16.95
2022-08-26T17:43:26.754Z,16.67
2022-08-26T17:45:58.654Z,18.88
2022-08-26T17:48:35.525Z,16.05
2022-08-26T17:51:17.088Z,16.05
2022-08-26T17:53:44.176Z,14.20
2022-08-26T17:56:14.327Z,15.38
2022-08-26T17:58:51.162Z,9.75
2022-08-26T18:01:20.832Z,14.80
2022-08-26T18:03:49.102Z,12.90
2022-08-26T18:06:16.411Z,10.75
2022-08-26T18:08:44.938Z,12.85
2022-08-26T18:11:16.538Z,11.57
2022-08-26T18:13:47.499Z,12.10
2022-08-26T18:16:17.722Z,11.73
2022-08-26T18:18:46.493Z,9.82
2022-08-26T18:21:19.045Z,11.88
2022-08-26T18:23:47.612Z,10.95
2022-08-26T18:26:33.323Z,9.40
2022-08-26T18:29:00.951Z,11.35
2022-08-26T18:31:28.931Z,18.60
2022-08-26T18:33:56.557Z,18.50
2022-08-26T18:36:33.900Z,13.13
2022-08-26T18:39:02.086Z,10.57
2022-08-26T18:41:31.159Z,10.43
2022-08-26T18:43:58.494Z,12.88
2022-08-26T18:46:27.189Z,14.88
2022-08-26T18:48:56.068Z,13.07
2022-08-26T18:51:27.703Z,13.80
2022-08-26T18:53:55.105Z,13.93
2022-08-26T18:56:22.718Z,14.00
2022-08-26T18:58:50.407Z,12.68
2022-08-26T19:01:18.820Z,13.65
2022-08-26T19:03:47.105Z,12.88
2022-08-26T19:06:17.013Z,13.15
2022-08-26T19:08:44.665Z,14.15
2022-08-26T19:11:13.867Z,13.80
2022-08-26T19:13:45.282Z,13.63
2022-08-26T19:16:30.938Z,12.13
2022-08-26T19:19:01.324Z,17.73
2022-08-26T19:21:29.849Z,19.15
2022-08-26T19:23:58.697Z,16.45
2022-08-26T19:26:31.088Z,15.15
2022-08-26T19:28:58.829Z,13.32
2022-08-26T19:31:26.901Z,11.82
2022-08-26T19:33:54.261Z,16.40
2022-08-26T19:36:23.747Z,15.98
2022-08-26T19:38:51.977Z,16.33
2022-08-26T19:41:29.423Z,14.20
2022-08-26T19:44:07.616Z,15.23
2022-08-26T19:46:36.400Z,16.45
2022-08-26T19:49:03.637Z,16.30
2022-08-26T19:51:33.245Z,15.45
2022-08-26T19:54:01.895Z,13.48
2022-08-26T19:56:29.487Z,10.93
2022-08-26T19:58:57.066Z,11.10
2022-08-26T20:01:24.760Z,17.52
2022-08-26T20:03:52.083Z,15.75
2022-08-26T20:06:20.241Z,16.33
2022-08-26T20:08:50.734Z,12.63
2022-08-26T20:11:19.275Z,11.55
2022-08-26T20:13:47.960Z,11.40
2022-08-26T20:16:16.842Z,12.35
2022-08-26T20:19:03.902Z,12.30
2022-08-26T20:21:35.745Z,11.88
2022-08-26T20:24:09.588Z,11.88
2022-08-26T20:26:38.834Z,11.07
2022-08-26T20:29:08.081Z,14.52
2022-08-26T20:31:35.957Z,9.75
2022-08-26T20:34:05.320Z,11.73
2022-08-26T20:36:33.334Z,17.17
2022-08-26T20:39:00.633Z,16.42
2022-08-26T20:41:28.722Z,12.95
2022-08-26T20:43:56.903Z,10.38
2022-08-26T20:46:25.544Z,17.10
2022-08-26T20:48:53.959Z,13.00
2022-08-26T20:51:23.707Z,16.75
2022-08-26T20:53:51.356Z,13.43
2022-08-26T20:56:25.304Z,11.63
2022-08-26T20:58:54.444Z,10.95
2022-08-26T21:01:28.375Z,12.43
2022-08-26T21:03:57.015Z,12.35
2022-08-26T21:06:24.657Z,11.40
2022-08-26T21:08:51.901Z,12.40
2022-08-26T21:11:20.623Z,17.67
2022-08-26T21:14:04.492Z,12.93
2022-08-26T21:16:36.752Z,12.38
2022-08-26T21:19:05.926Z,15.05
2022-08-26T21:21:33.941Z,10.23
2022-08-26T21:24:01.547Z,10.75
2022-08-26T21:26:29.578Z,18.88
2022-08-26T21:28:56.908Z,13.50
2022-08-26T21:31:25.707Z,13.73
2022-08-26T21:33:53.242Z,10.23
2022-08-26T21:36:20.689Z,12.43
2022-08-26T21:38:48.186Z,10.10
2022-08-26T21:41:24.440Z,13.80
2022-08-26T21:43:55.161Z,18.95
2022-08-26T21:46:24.659Z,14.00
2022-08-26T21:48:59.533Z,12.13
2022-08-26T21:51:34.273Z,14.68
2022-08-26T21:54:03.679Z,14.32
2022-08-26T21:56:36.074Z,13.10
2022-08-26T21:59:03.313Z,15.02
2022-08-26T22:01:32.546Z,11.90
2022-08-26T22:04:00.648Z,15.65
2022-08-26T22:06:29.761Z,14.15
2022-08-26T22:08:58.061Z,15.27
2022-08-26T22:11:27.545Z,11.38
2022-08-26T22:13:56.977Z,10.75
2022-08-26T22:16:26.990Z,14.43
2022-08-26T22:18:55.282Z,16.15
2022-08-26T22:21:24.825Z,14.82
2022-08-26T22:23:56.136Z,10.65
2022-08-26T22:26:29.134Z,14.30
2022-08-26T22:28:59.051Z,13.90
2022-08-26T22:31:37.571Z,14.82
2022-08-26T22:34:08.671Z,14.63
2022-08-26T22:36:43.058Z,16.38
2022-08-26T22:39:16.647Z,15.07
2022-08-26T22:41:45.064Z,14.50
2022-08-26T22:44:12.892Z,14.68
2022-08-26T22:46:41.659Z,15.15
2022-08-26T22:49:11.590Z,11.25
2022-08-26T22:51:39.290Z,14.85
2022-08-26T22:54:06.879Z,12.63
2022-08-26T22:56:35.377Z,18.08
2022-08-26T22:59:03.989Z,13.45
2022-08-26T23:01:31.583Z,18.33
2022-08-26T23:03:59.201Z,15.23
2022-08-26T23:06:26.500Z,13.55
2022-08-26T23:08:53.922Z,17.77
2022-08-26T23:11:21.471Z,12.63
2022-08-26T23:13:48.757Z,13.00
2022-08-26T23:16:16.328Z,16.50
2022-08-26T23:18:43.809Z,13.63
2022-08-26T23:21:11.116Z,9.60
2022-08-26T23:23:38.627Z,16.02
2022-08-26T23:26:08.228Z,16.88
2022-08-26T23:28:37.750Z,11.73
2022-08-26T23:31:05.970Z,12.35
2022-08-26T23:33:52.209Z,13.65
2022-08-26T23:36:22.756Z,15.48
2022-08-26T23:38:52.953Z,13.43
2022-08-26T23:41:22.766Z,13.57
2022-08-26T23:43:50.838Z,11.70
2022-08-26T23:46:19.185Z,13.70
2022-08-26T23:48:46.555Z,12.90
2022-08-26T23:51:32.471Z,16.33
2022-08-26T23:53:59.985Z,14.63
2022-08-26T23:56:27.215Z,14.88
2022-08-26T23:58:56.290Z,14.50
